createdAt,value
2018-03-19T00:03:09.684Z,2.88
2018-03-19T00:09:00.368Z,1.85
2018-03-19T00:14:50.978Z,2.01
2018-03-19T00:20:41.613Z,2.04
2018-03-19T00:26:32.198Z,2.26
2018-03-19T00:32:22.854Z,1.77
2018-03-19T00:38:13.494Z,1.88
2018-03-19T00:44:04.107Z,1.61
2018-03-19T00:49:54.783Z,1.64
2018-03-19T00:55:45.463Z,2.25
2018-03-19T01:01:36.000Z,2.3
2018-03-19T01:07:26.602Z,2.84
2018-03-19T01:13:17.287Z,3.44
2018-03-19T01:19:07.884Z,2.4
2018-03-19T01:24:58.488Z,1.67
2018-03-19T01:30:49.142Z,1.69
2018-03-19T01:36:39.774Z,1.83
2018-03-19T01:42:30.456Z,1.56
2018-03-19T01:48:21.015Z,1.67
2018-03-19T01:54:11.663Z,1.33
2018-03-19T02:00:02.799Z,1.43
2018-03-19T02:05:52.898Z,1.85
2018-03-19T02:11:43.558Z,1.81
2018-03-19T02:17:34.171Z,2.47
2018-03-19T02:23:24.770Z,3.08
2018-03-19T02:29:15.386Z,3.02
2018-03-19T02:35:06.046Z,2.01
2018-03-19T02:40:56.686Z,2.06
2018-03-19T02:46:47.259Z,1.66
2018-03-19T02:52:37.918Z,1.61
2018-03-19T02:58:28.510Z,1.49
2018-03-19T03:04:19.198Z,1.67
2018-03-19T03:10:09.795Z,1.6
2018-03-19T03:16:00.395Z,1.44
2018-03-19T03:21:51.016Z,1.53
2018-03-19T03:27:41.647Z,1.52
2018-03-19T03:33:32.257Z,1.84
2018-03-19T03:39:22.890Z,1.48
2018-03-19T03:45:13.524Z,1.89
2018-03-19T03:51:04.114Z,1.48
2018-03-19T03:56:54.811Z,2.1
2018-03-19T04:02:45.379Z,1.84
2018-03-19T04:08:35.960Z,1.76
2018-03-19T04:14:26.606Z,1.89
2018-03-19T04:20:17.213Z,1.58
2018-03-19T04:26:07.811Z,1.74
2018-03-19T04:31:58.439Z,1.79
2018-03-19T04:37:49.098Z,1.58
2018-03-19T04:43:39.668Z,1.75
2018-03-19T04:49:30.273Z,1.37
2018-03-19T04:55:20.949Z,1.78
2018-03-19T05:01:11.561Z,1.59
2018-03-19T05:07:02.132Z,2.1
2018-03-19T05:12:52.812Z,2.04
2018-03-19T05:18:43.334Z,1.88
2018-03-19T05:24:33.982Z,1.45
2018-03-19T05:30:24.587Z,1.8
2018-03-19T05:36:15.203Z,1.76
2018-03-19T05:42:05.824Z,1.67
2018-03-19T05:47:56.423Z,2.95
2018-03-19T05:53:47.027Z,2.18
2018-03-19T05:59:37.642Z,1.8
2018-03-19T06:05:28.261Z,2.23
2018-03-19T06:11:18.900Z,1.69
2018-03-19T06:17:09.522Z,2.06
2018-03-19T06:23:00.053Z,1.98
2018-03-19T06:28:50.718Z,1.81
2018-03-19T06:34:41.333Z,1.89
2018-03-19T06:40:31.898Z,2.32
2018-03-19T06:46:22.540Z,3.05
2018-03-19T06:52:13.155Z,2.06
2018-03-19T06:58:03.793Z,2.75
2018-03-19T07:03:54.381Z,2.24
2018-03-19T07:09:45.048Z,27.33
2018-03-19T07:15:35.665Z,4.99
2018-03-19T07:21:26.188Z,15.05
2018-03-19T07:27:16.856Z,2.53
2018-03-19T07:33:07.456Z,2.37
2018-03-19T07:38:58.184Z,2.8
2018-03-19T07:44:48.674Z,7.88
2018-03-19T07:50:39.284Z,2.67
2018-03-19T07:56:29.897Z,5.32
2018-03-19T08:02:20.576Z,3.6
2018-03-19T08:08:11.188Z,3.01
2018-03-19T08:14:01.766Z,2.89
2018-03-19T08:19:52.434Z,4.72
2018-03-19T08:25:43.099Z,4.16
2018-03-19T08:31:33.684Z,4.26
2018-03-19T08:37:24.304Z,3.54
2018-03-19T08:43:14.943Z,6.33
2018-03-19T08:49:05.529Z,2.88
2018-03-19T08:54:56.140Z,6.39
2018-03-19T09:00:46.790Z,3.54
2018-03-19T09:06:37.416Z,2.5
2018-03-19T09:12:28.033Z,5
2018-03-19T09:18:18.680Z,4.18
2018-03-19T09:24:09.292Z,2.78
2018-03-19T09:29:59.935Z,3.12
2018-03-19T09:35:50.637Z,5.22
2018-03-19T09:41:41.212Z,3.58
2018-03-19T09:47:31.817Z,3.59
2018-03-19T09:53:22.510Z,3.46
2018-03-19T09:59:13.116Z,3.62
2018-03-19T10:05:03.748Z,2.3
2018-03-19T10:10:54.324Z,2.68
2018-03-19T10:16:45.011Z,2.07
2018-03-19T10:22:35.598Z,2.49
2018-03-19T10:28:26.204Z,2.56
2018-03-19T10:34:16.887Z,2.2
2018-03-19T10:40:07.497Z,2.14
2018-03-19T10:45:58.083Z,2.4
2018-03-19T10:51:48.719Z,2.6
2018-03-19T10:57:39.427Z,2.61
2018-03-19T11:03:29.998Z,2.32
2018-03-19T11:09:20.629Z,2.12
2018-03-19T11:15:11.264Z,2.41
2018-03-19T11:21:01.843Z,2.72
2018-03-19T11:26:52.556Z,2.35
2018-03-19T11:32:43.121Z,2.58
2018-03-19T11:38:33.750Z,2.59
2018-03-19T11:44:24.365Z,2.51
2018-03-19T11:50:15.011Z,2.52
2018-03-19T11:56:05.621Z,2.46
2018-03-19T12:01:56.228Z,2.9
2018-03-19T12:07:46.843Z,2.47
2018-03-19T12:13:37.465Z,2.77
2018-03-19T12:19:28.143Z,2.61
2018-03-19T12:25:18.846Z,3.05
2018-03-19T12:31:09.393Z,3.2
2018-03-19T12:37:00.022Z,3.11
2018-03-19T12:42:50.637Z,3.21
2018-03-19T12:48:41.254Z,2.79
2018-03-19T12:54:31.947Z,3.15
2018-03-19T13:00:22.521Z,3.57
2018-03-19T13:06:13.178Z,3.2
2018-03-19T13:12:03.827Z,3.22
2018-03-19T13:17:54.444Z,2.97
2018-03-19T13:23:45.041Z,2.81
2018-03-19T13:29:35.693Z,3.51
2018-03-19T13:35:26.387Z,3.41
2018-03-19T13:41:16.982Z,4.06
2018-03-19T13:47:07.587Z,4.79
2018-03-19T13:52:58.259Z,6.59
2018-03-19T13:58:48.833Z,9.43
2018-03-19T14:04:39.451Z,4
2018-03-19T14:10:30.099Z,6.02
2018-03-19T14:16:20.721Z,7.49
2018-03-19T14:22:11.471Z,6.64
2018-03-19T14:28:02.007Z,4.4
2018-03-19T14:33:52.643Z,4.88
2018-03-19T14:39:43.282Z,7.56
2018-03-19T14:45:33.935Z,7.59
2018-03-19T14:51:24.561Z,3.45
2018-03-19T14:57:15.187Z,2.9
2018-03-19T15:03:05.801Z,2.8
2018-03-19T15:08:56.465Z,3.45
2018-03-19T15:14:47.139Z,2.78
2018-03-19T15:20:37.764Z,2.78
2018-03-19T15:26:28.423Z,2.94
2018-03-19T15:32:19.085Z,2.97
2018-03-19T15:38:09.666Z,3.99
2018-03-19T15:44:00.369Z,7.48
2018-03-19T15:49:50.931Z,4.3
2018-03-19T15:55:41.584Z,7.84
2018-03-19T16:01:32.202Z,7.96
2018-03-19T16:07:22.883Z,6.22
2018-03-19T16:13:13.526Z,2.81
2018-03-19T16:19:04.198Z,2.52
2018-03-19T16:24:54.734Z,4.08
2018-03-19T16:30:45.434Z,3.83
2018-03-19T16:36:36.054Z,4.08
2018-03-19T16:42:26.699Z,3.53
2018-03-19T16:48:17.322Z,3.62
2018-03-19T16:54:07.996Z,3.33
2018-03-19T16:59:58.574Z,3.82
2018-03-19T17:05:49.226Z,4.09
2018-03-19T17:11:39.876Z,8.99
2018-03-19T17:17:30.421Z,5
2018-03-19T17:23:21.036Z,39.26
2018-03-19T17:29:11.682Z,6.26
2018-03-19T17:35:02.355Z,6.21
2018-03-19T17:40:53.014Z,6.16
2018-03-19T17:46:43.598Z,7.8
2018-03-19T17:52:34.229Z,9.51
2018-03-19T17:58:24.876Z,7.33
2018-03-19T18:04:15.437Z,7.95
2018-03-19T18:10:06.144Z,8.97
2018-03-19T18:15:56.701Z,9.4
2018-03-19T18:21:47.336Z,9.62
2018-03-19T18:27:37.946Z,7.7
2018-03-19T18:33:28.631Z,6.16
2018-03-19T18:39:19.227Z,12.7
2018-03-19T18:45:09.841Z,8.46
2018-03-19T18:51:00.496Z,7.44
2018-03-19T18:56:51.111Z,6.46
2018-03-19T19:02:41.823Z,11.42
2018-03-19T19:08:32.390Z,7.95
2018-03-19T19:14:22.938Z,6.3
2018-03-19T19:20:13.546Z,6.35
2018-03-19T19:26:04.158Z,6.97
2018-03-19T19:31:54.829Z,8.93
2018-03-19T19:37:45.457Z,11.07
2018-03-19T19:43:36.047Z,12
2018-03-19T19:49:26.660Z,12.73
2018-03-19T19:55:17.307Z,13.64
2018-03-19T20:01:07.905Z,12.51
2018-03-19T20:06:58.581Z,13.18
2018-03-19T20:12:49.169Z,16.11
2018-03-19T20:18:39.821Z,11.64
2018-03-19T20:24:30.457Z,12.18
2018-03-19T20:30:21.067Z,13.64
2018-03-19T20:36:11.670Z,13.62
2018-03-19T20:42:02.261Z,15.21
2018-03-19T20:47:52.875Z,15.45
2018-03-19T20:53:43.475Z,17.13
2018-03-19T20:59:34.091Z,15.98
2018-03-19T21:05:24.755Z,15.46
2018-03-19T21:11:15.352Z,17.27
2018-03-19T21:17:06.005Z,16.84
2018-03-19T21:22:56.601Z,18.29
2018-03-19T21:28:47.252Z,13.11
2018-03-19T21:34:37.860Z,12.16
2018-03-19T21:40:28.448Z,11.26
2018-03-19T21:46:19.016Z,18.08
2018-03-19T21:52:09.744Z,20.28
2018-03-19T21:58:00.333Z,19.69
2018-03-19T22:03:50.889Z,23.8
2018-03-19T22:09:41.478Z,22.03
2018-03-19T22:15:32.180Z,21.67
2018-03-19T22:21:22.707Z,22.02
2018-03-19T22:27:13.346Z,21.62
2018-03-19T22:33:03.988Z,23.43
2018-03-19T22:38:54.576Z,19.81
2018-03-19T22:44:45.175Z,20.62
2018-03-19T22:50:35.790Z,21.25
2018-03-19T22:56:26.434Z,19.41
2018-03-19T23:02:17.030Z,20.07
2018-03-19T23:08:07.644Z,18.91
2018-03-19T23:13:58.328Z,11.95
2018-03-19T23:19:48.874Z,13.3
2018-03-19T23:25:39.537Z,14.91
2018-03-19T23:31:30.128Z,14.2
2018-03-19T23:37:20.786Z,12.79
2018-03-19T23:43:11.370Z,13.62
2018-03-19T23:49:01.977Z,15.06
2018-03-19T23:54:52.621Z,14.87
